sensor_id;sensor_type;location;lat;lon;timestamp;P1;durP1;ratioP1;P2;durP2;ratioP2
63296;SDS011;49419;51.716;-4.948;2022-08-01T00:01:38;9.30;;;8.80;;
63296;SDS011;49419;51.716;-4.948;2022-08-01T00:04:04;9.48;;;8.98;;
63296;SDS011;49419;51.716;-4.948;2022-08-01T00:06:30;9.73;;;9.23;;
63296;SDS011;49419;51.716;-4.948;2022-08-01T00:08:55;9.80;;;9.30;;
63296;SDS011;49419;51.716;-4.948;2022-08-01T00:11:23;9.65;;;9.15;;
63296;SDS011;49419;51.716;-4.948;2022-08-01T00:13:48;9.70;;;9.20;;
63296;SDS011;49419;51.716;-4.948;2022-08-01T00:16:14;10.00;;;9.50;;
63296;SDS011;49419;51.716;-4.948;2022-08-01T00:18:40;9.40;;;8.90;;
63296;SDS011;49419;51.716;-4.948;2022-08-01T00:21:06;9.70;;;9.20;;
63296;SDS011;49419;51.716;-4.948;2022-08-01T00:23:32;9.80;;;9.30;;
63296;SDS011;49419;51.716;-4.948;2022-08-01T00:25:58;9.75;;;9.25;;
63296;SDS011;49419;51.716;-4.948;2022-08-01T00:28:23;9.52;;;9.02;;
63296;SDS011;49419;51.716;-4.948;2022-08-01T00:30:51;10.05;;;9.55;;
63296;SDS011;49419;51.716;-4.948;2022-08-01T00:33:19;9.90;;;9.40;;
63296;SDS011;49419;51.716;-4.948;2022-08-01T00:35:44;9.98;;;9.45;;
63296;SDS011;49419;51.716;-4.948;2022-08-01T00:38:09;10.02;;;9.50;;
63296;SDS011;49419;51.716;-4.948;2022-08-01T00:40:38;9.77;;;9.27;;
63296;SDS011;49419;51.716;-4.948;2022-08-01T00:43:06;9.80;;;9.30;;
63296;SDS011;49419;51.716;-4.948;2022-08-01T00:45:32;9.95;;;9.45;;
63296;SDS011;49419;51.716;-4.948;2022-08-01T00:47:57;10.05;;;9.55;;
63296;SDS011;49419;51.716;-4.948;2022-08-01T00:50:26;10.35;;;9.80;;
63296;SDS011;49419;51.716;-4.948;2022-08-01T00:52:51;10.60;;;10.00;;
63296;SDS011;49419;51.716;-4.948;2022-08-01T00:55:17;10.30;;;9.80;;
63296;SDS011;49419;51.716;-4.948;2022-08-01T00:57:43;10.52;;;9.93;;
63296;SDS011;49419;51.716;-4.948;2022-08-01T01:00:11;10.30;;;9.80;;
63296;SDS011;49419;51.716;-4.948;2022-08-01T01:02:49;10.68;;;10.07;;
63296;SDS011;49419;51.716;-4.948;2022-08-01T01:05:15;10.57;;;9.97;;
63296;SDS011;49419;51.716;-4.948;2022-08-01T01:07:59;10.30;;;9.80;;
63296;SDS011;49419;51.716;-4.948;2022-08-01T01:10:36;10.65;;;10.05;;
63296;SDS011;49419;51.716;-4.948;2022-08-01T01:18:34;10.73;;;10.13;;
63296;SDS011;49419;51.716;-4.948;2022-08-01T01:31:46;10.15;;;9.65;;
63296;SDS011;49419;51.716;-4.948;2022-08-01T01:34:15;10.13;;;9.63;;
63296;SDS011;49419;51.716;-4.948;2022-08-01T01:36:42;10.23;;;9.68;;
63296;SDS011;49419;51.716;-4.948;2022-08-01T01:39:11;10.35;;;9.82;;
63296;SDS011;49419;51.716;-4.948;2022-08-01T01:41:39;10.55;;;9.95;;
63296;SDS011;49419;51.716;-4.948;2022-08-01T01:44:08;10.60;;;10.00;;
63296;SDS011;49419;51.716;-4.948;2022-08-01T01:49:00;10.90;;;10.30;;
63296;SDS011;49419;51.716;-4.948;2022-08-01T01:51:28;10.95;;;10.35;;
63296;SDS011;49419;51.716;-4.948;2022-08-01T01:53:55;10.95;;;10.35;;
63296;SDS011;49419;51.716;-4.948;2022-08-01T01:56:22;11.10;;;10.50;;
63296;SDS011;49419;51.716;-4.948;2022-08-01T01:58:53;11.05;;;10.45;;
63296;SDS011;49419;51.716;-4.948;2022-08-01T02:01:29;11.07;;;10.48;;
63296;SDS011;49419;51.716;-4.948;2022-08-01T02:03:57;10.88;;;10.27;;
63296;SDS011;49419;51.716;-4.948;2022-08-01T02:06:25;11.02;;;10.43;;
63296;SDS011;49419;51.716;-4.948;2022-08-01T02:08:53;11.15;;;10.55;;
63296;SDS011;49419;51.716;-4.948;2022-08-01T02:11:19;10.90;;;10.30;;
63296;SDS011;49419;51.716;-4.948;2022-08-01T02:14:04;10.90;;;10.30;;
63296;SDS011;49419;51.716;-4.948;2022-08-01T02:16:35;10.85;;;10.25;;
63296;SDS011;49419;51.716;-4.948;2022-08-01T02:21:32;10.27;;;9.77;;
63296;SDS011;49419;51.716;-4.948;2022-08-01T02:24:16;10.80;;;10.20;;
63296;SDS011;49419;51.716;-4.948;2022-08-01T02:26:49;10.48;;;9.90;;
63296;SDS011;49419;51.716;-4.948;2022-08-01T02:29:19;10.80;;;10.20;;
63296;SDS011;49419;51.716;-4.948;2022-08-01T02:31:49;10.90;;;10.30;;
63296;SDS011;49419;51.716;-4.948;2022-08-01T02:34:22;10.77;;;10.18;;
63296;SDS011;49419;51.716;-4.948;2022-08-01T02:36:50;11.20;;;10.60;;
63296;SDS011;49419;51.716;-4.948;2022-08-01T02:39:21;10.68;;;10.07;;
63296;SDS011;49419;51.716;-4.948;2022-08-01T02:41:49;10.90;;;10.30;;
63296;SDS011;49419;51.716;-4.948;2022-08-01T02:44:23;11.35;;;10.68;;
63296;SDS011;49419;51.716;-4.948;2022-08-01T02:46:54;11.40;;;10.80;;
63296;SDS011;49419;51.716;-4.948;2022-08-01T02:49:27;11.30;;;10.70;;
63296;SDS011;49419;51.716;-4.948;2022-08-01T02:52:16;11.13;;;10.52;;
63296;SDS011;49419;51.716;-4.948;2022-08-01T02:54:47;11.20;;;10.60;;
63296;SDS011;49419;51.716;-4.948;2022-08-01T02:57:15;11.30;;;10.70;;
63296;SDS011;49419;51.716;-4.948;2022-08-01T02:59:43;11.23;;;10.63;;
63296;SDS011;49419;51.716;-4.948;2022-08-01T03:02:13;11.30;;;10.70;;
63296;SDS011;49419;51.716;-4.948;2022-08-01T03:04:57;11.50;;;10.90;;
63296;SDS011;49419;51.716;-4.948;2022-08-01T03:07:23;11.35;;;10.75;;
63296;SDS011;49419;51.716;-4.948;2022-08-01T03:09:51;11.07;;;10.48;;
63296;SDS011;49419;51.716;-4.948;2022-08-01T03:12:19;11.25;;;10.65;;
63296;SDS011;49419;51.716;-4.948;2022-08-01T03:17:14;11.45;;;10.85;;
63296;SDS011;49419;51.716;-4.948;2022-08-01T03:19:45;11.30;;;10.70;;
63296;SDS011;49419;51.716;-4.948;2022-08-01T03:24:39;11.32;;;10.73;;
63296;SDS011;49419;51.716;-4.948;2022-08-01T03:27:06;11.40;;;10.80;;
63296;SDS011;49419;51.716;-4.948;2022-08-01T03:29:37;11.45;;;10.85;;
63296;SDS011;49419;51.716;-4.948;2022-08-01T03:32:04;11.18;;;10.57;;
63296;SDS011;49419;51.716;-4.948;2022-08-01T03:34:30;10.93;;;10.32;;
63296;SDS011;49419;51.716;-4.948;2022-08-01T03:37:02;11.40;;;10.80;;
63296;SDS011;49419;51.716;-4.948;2022-08-01T03:39:47;11.07;;;10.48;;
63296;SDS011;49419;51.716;-4.948;2022-08-01T03:42:17;11.25;;;10.65;;
63296;SDS011;49419;51.716;-4.948;2022-08-01T03:44:57;11.02;;;10.43;;
63296;SDS011;49419;51.716;-4.948;2022-08-01T03:47:31;11.15;;;10.55;;
63296;SDS011;49419;51.716;-4.948;2022-08-01T03:49:58;11.10;;;10.50;;
63296;SDS011;49419;51.716;-4.948;2022-08-01T03:52:32;11.18;;;10.57;;
63296;SDS011;49419;51.716;-4.948;2022-08-01T03:55:06;11.15;;;10.55;;
63296;SDS011;49419;51.716;-4.948;2022-08-01T03:57:33;11.00;;;10.40;;
63296;SDS011;49419;51.716;-4.948;2022-08-01T04:00:03;10.98;;;10.38;;
63296;SDS011;49419;51.716;-4.948;2022-08-01T04:02:32;11.23;;;10.63;;
63296;SDS011;49419;51.716;-4.948;2022-08-01T04:04:58;11.20;;;10.60;;
63296;SDS011;49419;51.716;-4.948;2022-08-01T04:07:28;11.43;;;10.82;;
63296;SDS011;49419;51.716;-4.948;2022-08-01T04:09:55;11.15;;;10.55;;
63296;SDS011;49419;51.716;-4.948;2022-08-01T04:12:37;11.10;;;10.50;;
63296;SDS011;49419;51.716;-4.948;2022-08-01T04:15:03;11.45;;;10.85;;
63296;SDS011;49419;51.716;-4.948;2022-08-01T04:17:32;11.48;;;10.88;;
63296;SDS011;49419;51.716;-4.948;2022-08-01T04:19:57;11.55;;;10.95;;
63296;SDS011;49419;51.716;-4.948;2022-08-01T04:22:23;11.85;;;11.15;;
63296;SDS011;49419;51.716;-4.948;2022-08-01T04:24:49;11.50;;;10.90;;
63296;SDS011;49419;51.716;-4.948;2022-08-01T04:27:21;11.80;;;11.10;;
63296;SDS011;49419;51.716;-4.948;2022-08-01T04:29:53;11.57;;;10.98;;
63296;SDS011;49419;51.716;-4.948;2022-08-01T04:32:22;12.15;;;11.45;;
63296;SDS011;49419;51.716;-4.948;2022-08-01T04:34:49;11.77;;;11.07;;
63296;SDS011;49419;51.716;-4.948;2022-08-01T04:37:19;11.90;;;11.20;;
63296;SDS011;49419;51.716;-4.948;2022-08-01T04:39:44;12.00;;;11.30;;
63296;SDS011;49419;51.716;-4.948;2022-08-01T04:42:11;12.02;;;11.32;;
63296;SDS011;49419;51.716;-4.948;2022-08-01T04:44:40;11.97;;;11.27;;
63296;SDS011;49419;51.716;-4.948;2022-08-01T04:47:06;11.88;;;11.18;;
63296;SDS011;49419;51.716;-4.948;2022-08-01T04:49:33;12.10;;;11.40;;
63296;SDS011;49419;51.716;-4.948;2022-08-01T04:52:00;12.25;;;11.55;;
63296;SDS011;49419;51.716;-4.948;2022-08-01T04:54:26;12.02;;;11.32;;
63296;SDS011;49419;51.716;-4.948;2022-08-01T04:56:54;11.85;;;11.15;;
63296;SDS011;49419;51.716;-4.948;2022-08-01T04:59:26;11.90;;;11.20;;
63296;SDS011;49419;51.716;-4.948;2022-08-01T05:02:11;12.05;;;11.35;;
63296;SDS011;49419;51.716;-4.948;2022-08-01T05:04:41;12.05;;;11.35;;
63296;SDS011;49419;51.716;-4.948;2022-08-01T05:07:42;12.18;;;11.48;;
63296;SDS011;49419;51.716;-4.948;2022-08-01T05:10:09;12.45;;;11.65;;
63296;SDS011;49419;51.716;-4.948;2022-08-01T05:12:40;12.23;;;11.52;;
63296;SDS011;49419;51.716;-4.948;2022-08-01T05:15:07;11.80;;;11.10;;
63296;SDS011;49419;51.716;-4.948;2022-08-01T05:17:34;11.77;;;11.07;;
63296;SDS011;49419;51.716;-4.948;2022-08-01T05:20:02;11.95;;;11.25;;
63296;SDS011;49419;51.716;-4.948;2022-08-01T05:22:28;12.07;;;11.27;;
63296;SDS011;49419;51.716;-4.948;2022-08-01T05:24:57;12.10;;;11.40;;
63296;SDS011;49419;51.716;-4.948;2022-08-01T05:27:22;12.10;;;11.40;;
63296;SDS011;49419;51.716;-4.948;2022-08-01T05:29:47;11.90;;;11.20;;
63296;SDS011;49419;51.716;-4.948;2022-08-01T05:32:15;11.98;;;11.27;;
63296;SDS011;49419;51.716;-4.948;2022-08-01T05:34:41;11.82;;;11.13;;
63296;SDS011;49419;51.716;-4.948;2022-08-01T05:37:09;11.90;;;11.20;;
63296;SDS011;49419;51.716;-4.948;2022-08-01T05:39:35;12.03;;;11.33;;
63296;SDS011;49419;51.716;-4.948;2022-08-01T05:42:01;11.95;;;11.25;;
63296;SDS011;49419;51.716;-4.948;2022-08-01T05:44:27;12.13;;;11.43;;
63296;SDS011;49419;51.716;-4.948;2022-08-01T05:47:04;11.77;;;11.10;;
63296;SDS011;49419;51.716;-4.948;2022-08-01T05:49:47;11.57;;;10.98;;
63296;SDS011;49419;51.716;-4.948;2022-08-01T05:52:13;11.50;;;10.90;;
63296;SDS011;49419;51.716;-4.948;2022-08-01T05:54:39;11.60;;;11.00;;
63296;SDS011;49419;51.716;-4.948;2022-08-01T05:57:04;11.52;;;10.93;;
63296;SDS011;49419;51.716;-4.948;2022-08-01T05:59:33;11.60;;;11.00;;
63296;SDS011;49419;51.716;-4.948;2022-08-01T06:01:58;11.20;;;10.60;;
63296;SDS011;49419;51.716;-4.948;2022-08-01T06:04:25;11.43;;;10.82;;
63296;SDS011;49419;51.716;-4.948;2022-08-01T06:06:50;11.27;;;10.68;;
63296;SDS011;49419;51.716;-4.948;2022-08-01T06:09:16;11.25;;;10.65;;
63296;SDS011;49419;51.716;-4.948;2022-08-01T06:11:42;10.98;;;10.38;;
63296;SDS011;49419;51.716;-4.948;2022-08-01T06:14:07;10.77;;;10.18;;
63296;SDS011;49419;51.716;-4.948;2022-08-01T06:16:34;10.15;;;9.65;;
63296;SDS011;49419;51.716;-4.948;2022-08-01T06:18:59;9.98;;;9.48;;
63296;SDS011;49419;51.716;-4.948;2022-08-01T06:21:26;8.98;;;8.48;;
63296;SDS011;49419;51.716;-4.948;2022-08-01T06:23:51;8.90;;;8.40;;
63296;SDS011;49419;51.716;-4.948;2022-08-01T06:26:20;8.40;;;8.00;;
63296;SDS011;49419;51.716;-4.948;2022-08-01T06:28:48;8.95;;;8.45;;
63296;SDS011;49419;51.716;-4.948;2022-08-01T06:31:14;8.77;;;8.37;;
63296;SDS011;49419;51.716;-4.948;2022-08-01T06:33:40;8.52;;;8.02;;
63296;SDS011;49419;51.716;-4.948;2022-08-01T06:36:06;8.70;;;8.30;;
63296;SDS011;49419;51.716;-4.948;2022-08-01T06:38:31;8.50;;;8.10;;
63296;SDS011;49419;51.716;-4.948;2022-08-01T06:40:57;8.43;;;8.02;;
63296;SDS011;49419;51.716;-4.948;2022-08-01T06:43:22;9.73;;;9.23;;
63296;SDS011;49419;51.716;-4.948;2022-08-01T06:45:50;9.68;;;9.18;;
63296;SDS011;49419;51.716;-4.948;2022-08-01T06:48:15;10.10;;;9.60;;
63296;SDS011;49419;51.716;-4.948;2022-08-01T06:50:45;9.70;;;9.20;;
63296;SDS011;49419;51.716;-4.948;2022-08-01T06:53:32;9.18;;;8.68;;
63296;SDS011;49419;51.716;-4.948;2022-08-01T06:55:58;9.70;;;9.20;;
63296;SDS011;49419;51.716;-4.948;2022-08-01T06:58:26;9.77;;;9.27;;
63296;SDS011;49419;51.716;-4.948;2022-08-01T07:00:52;8.77;;;8.38;;
63296;SDS011;49419;51.716;-4.948;2022-08-01T07:03:17;9.20;;;8.70;;
63296;SDS011;49419;51.716;-4.948;2022-08-01T07:05:43;8.70;;;8.30;;
63296;SDS011;49419;51.716;-4.948;2022-08-01T07:08:08;9.35;;;8.85;;
63296;SDS011;49419;51.716;-4.948;2022-08-01T07:10:36;8.85;;;8.45;;
63296;SDS011;49419;51.716;-4.948;2022-08-01T07:13:02;9.05;;;8.55;;
63296;SDS011;49419;51.716;-4.948;2022-08-01T07:15:27;8.73;;;8.32;;
63296;SDS011;49419;51.716;-4.948;2022-08-01T07:18:00;9.63;;;9.13;;
63296;SDS011;49419;51.716;-4.948;2022-08-01T07:20:29;9.70;;;9.20;;
63296;SDS011;49419;51.716;-4.948;2022-08-01T07:23:04;9.88;;;9.38;;
63296;SDS011;49419;51.716;-4.948;2022-08-01T07:25:40;10.55;;;10.05;;
63296;SDS011;49419;51.716;-4.948;2022-08-01T07:28:09;10.65;;;10.00;;
63296;SDS011;49419;51.716;-4.948;2022-08-01T07:30:36;10.13;;;9.63;;
63296;SDS011;49419;51.716;-4.948;2022-08-01T07:33:11;10.02;;;9.52;;
63296;SDS011;49419;51.716;-4.948;2022-08-01T07:35:43;9.73;;;9.23;;
63296;SDS011;49419;51.716;-4.948;2022-08-01T07:38:11;9.73;;;9.23;;
63296;SDS011;49419;51.716;-4.948;2022-08-01T07:40:43;9.98;;;9.48;;
63296;SDS011;49419;51.716;-4.948;2022-08-01T07:43:33;9.70;;;9.20;;
63296;SDS011;49419;51.716;-4.948;2022-08-01T07:46:09;9.60;;;9.10;;
63296;SDS011;49419;51.716;-4.948;2022-08-01T07:48:42;9.60;;;9.10;;
63296;SDS011;49419;51.716;-4.948;2022-08-01T07:51:22;8.98;;;8.50;;
63296;SDS011;49419;51.716;-4.948;2022-08-01T07:53:50;8.60;;;8.20;;
63296;SDS011;49419;51.716;-4.948;2022-08-01T07:56:26;8.35;;;7.95;;
63296;SDS011;49419;51.716;-4.948;2022-08-01T07:59:01;8.13;;;7.72;;
63296;SDS011;49419;51.716;-4.948;2022-08-01T08:01:28;8.50;;;8.10;;
63296;SDS011;49419;51.716;-4.948;2022-08-01T08:03:57;7.47;;;7.07;;
63296;SDS011;49419;51.716;-4.948;2022-08-01T08:06:31;7.50;;;7.10;;
63296;SDS011;49419;51.716;-4.948;2022-08-01T08:11:41;6.50;;;6.20;;
63296;SDS011;49419;51.716;-4.948;2022-08-01T08:14:15;6.03;;;5.72;;
63296;SDS011;49419;51.716;-4.948;2022-08-01T08:16:46;5.70;;;5.40;;
63296;SDS011;49419;51.716;-4.948;2022-08-01T08:19:12;5.70;;;5.40;;
63296;SDS011;49419;51.716;-4.948;2022-08-01T08:21:42;6.13;;;5.82;;
63296;SDS011;49419;51.716;-4.948;2022-08-01T08:24:10;6.40;;;6.10;;
63296;SDS011;49419;51.716;-4.948;2022-08-01T08:30:04;7.00;;;6.60;;
63296;SDS011;49419;51.716;-4.948;2022-08-01T08:32:51;7.03;;;6.72;;
63296;SDS011;49419;51.716;-4.948;2022-08-01T08:35:18;6.97;;;6.68;;
63296;SDS011;49419;51.716;-4.948;2022-08-01T08:38:00;7.22;;;6.82;;
63296;SDS011;49419;51.716;-4.948;2022-08-01T08:40:32;7.50;;;7.10;;
63296;SDS011;49419;51.716;-4.948;2022-08-01T08:45:54;7.35;;;6.95;;
63296;SDS011;49419;51.716;-4.948;2022-08-01T08:48:31;7.70;;;7.30;;
63296;SDS011;49419;51.716;-4.948;2022-08-01T09:03:49;9.25;;;8.75;;
63296;SDS011;49419;51.716;-4.948;2022-08-01T12:26:14;6.45;;;6.15;;
63296;SDS011;49419;51.716;-4.948;2022-08-01T19:12:28;13.30;;;12.30;;
63296;SDS011;49419;51.716;-4.948;2022-08-01T19:14:54;13.40;;;12.50;;
63296;SDS011;49419;51.716;-4.948;2022-08-01T19:17:25;13.25;;;12.45;;
63296;SDS011;49419;51.716;-4.948;2022-08-01T19:19:53;13.25;;;12.35;;
63296;SDS011;49419;51.716;-4.948;2022-08-01T19:22:21;13.32;;;12.52;;
63296;SDS011;49419;51.716;-4.948;2022-08-01T19:24:52;13.88;;;12.80;;
63296;SDS011;49419;51.716;-4.948;2022-08-01T19:27:18;13.80;;;12.80;;
63296;SDS011;49419;51.716;-4.948;2022-08-01T19:29:53;14.20;;;13.07;;
63296;SDS011;49419;51.716;-4.948;2022-08-01T19:35:13;13.90;;;13.00;;
63296;SDS011;49419;51.716;-4.948;2022-08-01T19:37:43;13.82;;;12.82;;
63296;SDS011;49419;51.716;-4.948;2022-08-01T19:40:16;13.77;;;12.77;;
63296;SDS011;49419;51.716;-4.948;2022-08-01T19:42:45;13.98;;;12.98;;
63296;SDS011;49419;51.716;-4.948;2022-08-01T19:45:16;14.13;;;13.02;;
63296;SDS011;49419;51.716;-4.948;2022-08-01T19:47:58;14.30;;;13.18;;
63296;SDS011;49419;51.716;-4.948;2022-08-01T19:50:40;13.55;;;12.57;;
63296;SDS011;49419;51.716;-4.948;2022-08-01T19:53:14;14.38;;;13.25;;
63296;SDS011;49419;51.716;-4.948;2022-08-01T20:01:32;14.85;;;13.65;;
63296;SDS011;49419;51.716;-4.948;2022-08-01T20:04:03;14.48;;;13.27;;
63296;SDS011;49419;51.716;-4.948;2022-08-01T20:07:21;15.75;;;14.45;;
63296;SDS011;49419;51.716;-4.948;2022-08-01T20:09:47;15.65;;;14.38;;
63296;SDS011;49419;51.716;-4.948;2022-08-01T20:15:15;15.07;;;13.90;;
63296;SDS011;49419;51.716;-4.948;2022-08-01T20:22:13;15.32;;;14.13;;
63296;SDS011;49419;51.716;-4.948;2022-08-01T20:27:29;16.20;;;14.85;;
63296;SDS011;49419;51.716;-4.948;2022-08-01T20:30:15;15.40;;;14.15;;
63296;SDS011;49419;51.716;-4.948;2022-08-01T20:35:34;15.13;;;13.90;;
63296;SDS011;49419;51.716;-4.948;2022-08-01T20:40:53;15.00;;;13.80;;
63296;SDS011;49419;51.716;-4.948;2022-08-01T20:43:22;14.95;;;13.80;;
63296;SDS011;49419;51.716;-4.948;2022-08-01T20:45:51;15.85;;;14.40;;
63296;SDS011;49419;51.716;-4.948;2022-08-01T20:48:17;14.93;;;13.80;;
63296;SDS011;49419;51.716;-4.948;2022-08-01T20:50:44;15.38;;;14.18;;
63296;SDS011;49419;51.716;-4.948;2022-08-01T20:53:29;15.35;;;14.00;;
63296;SDS011;49419;51.716;-4.948;2022-08-01T20:55:58;14.60;;;13.40;;
63296;SDS011;49419;51.716;-4.948;2022-08-01T21:01:47;14.32;;;13.32;;
63296;SDS011;49419;51.716;-4.948;2022-08-01T21:06:52;15.15;;;13.98;;
63296;SDS011;49419;51.716;-4.948;2022-08-01T21:12:02;14.85;;;13.80;;
63296;SDS011;49419;51.716;-4.948;2022-08-01T21:14:51;15.23;;;14.05;;
63296;SDS011;49419;51.716;-4.948;2022-08-01T21:17:27;15.02;;;13.88;;
63296;SDS011;49419;51.716;-4.948;2022-08-01T21:20:05;15.18;;;13.95;;
63296;SDS011;49419;51.716;-4.948;2022-08-01T21:25:31;15.40;;;14.18;;
63296;SDS011;49419;51.716;-4.948;2022-08-01T21:28:01;15.20;;;14.10;;
63296;SDS011;49419;51.716;-4.948;2022-08-01T21:30:28;15.43;;;14.33;;
63296;SDS011;49419;51.716;-4.948;2022-08-01T21:32:55;14.87;;;13.77;;
63296;SDS011;49419;51.716;-4.948;2022-08-01T21:35:36;15.10;;;14.00;;
63296;SDS011;49419;51.716;-4.948;2022-08-01T21:38:17;15.23;;;14.15;;
63296;SDS011;49419;51.716;-4.948;2022-08-01T21:40:43;15.10;;;14.00;;
63296;SDS011;49419;51.716;-4.948;2022-08-01T21:45:48;15.27;;;14.18;;
63296;SDS011;49419;51.716;-4.948;2022-08-01T21:48:17;15.30;;;14.20;;
63296;SDS011;49419;51.716;-4.948;2022-08-01T21:59:56;15.00;;;14.00;;
63296;SDS011;49419;51.716;-4.948;2022-08-01T22:02:42;15.10;;;13.95;;
63296;SDS011;49419;51.716;-4.948;2022-08-01T22:05:14;15.07;;;14.05;;
63296;SDS011;49419;51.716;-4.948;2022-08-01T22:07:46;15.27;;;14.02;;
63296;SDS011;49419;51.716;-4.948;2022-08-01T22:10:16;14.80;;;13.80;;
63296;SDS011;49419;51.716;-4.948;2022-08-01T22:12:45;14.85;;;13.85;;
63296;SDS011;49419;51.716;-4.948;2022-08-01T22:15:15;14.82;;;13.80;;
63296;SDS011;49419;51.716;-4.948;2022-08-01T22:17:43;15.25;;;14.05;;
63296;SDS011;49419;51.716;-4.948;2022-08-01T22:20:14;15.25;;;14.02;;
63296;SDS011;49419;51.716;-4.948;2022-08-01T22:22:42;15.93;;;14.52;;
63296;SDS011;49419;51.716;-4.948;2022-08-01T22:25:08;15.60;;;14.23;;
63296;SDS011;49419;51.716;-4.948;2022-08-01T22:27:42;15.55;;;14.25;;
63296;SDS011;49419;51.716;-4.948;2022-08-01T22:30:11;15.80;;;14.60;;
63296;SDS011;49419;51.716;-4.948;2022-08-01T22:32:47;15.07;;;14.07;;
63296;SDS011;49419;51.716;-4.948;2022-08-01T22:35:15;15.18;;;14.13;;
63296;SDS011;49419;51.716;-4.948;2022-08-01T22:37:49;15.20;;;14.10;;
63296;SDS011;49419;51.716;-4.948;2022-08-01T22:40:15;15.88;;;14.57;;
63296;SDS011;49419;51.716;-4.948;2022-08-01T22:42:46;15.63;;;14.43;;
63296;SDS011;49419;51.716;-4.948;2022-08-01T22:45:36;15.40;;;14.30;;
63296;SDS011;49419;51.716;-4.948;2022-08-01T22:50:50;15.50;;;14.30;;
63296;SDS011;49419;51.716;-4.948;2022-08-01T22:56:09;15.20;;;14.07;;
63296;SDS011;49419;51.716;-4.948;2022-08-01T22:58:40;15.55;;;14.40;;
63296;SDS011;49419;51.716;-4.948;2022-08-01T23:01:28;15.23;;;14.15;;
63296;SDS011;49419;51.716;-4.948;2022-08-01T23:03:58;15.38;;;14.27;;
63296;SDS011;49419;51.716;-4.948;2022-08-01T23:07:01;15.38;;;14.27;;
63296;SDS011;49419;51.716;-4.948;2022-08-01T23:09:25;15.50;;;14.30;;
63296;SDS011;49419;51.716;-4.948;2022-08-01T23:12:08;15.57;;;14.48;;
63296;SDS011;49419;51.716;-4.948;2022-08-01T23:14:44;15.38;;;14.27;;
63296;SDS011;49419;51.716;-4.948;2022-08-01T23:20:12;15.55;;;14.30;;
63296;SDS011;49419;51.716;-4.948;2022-08-01T23:22:38;15.80;;;14.50;;
63296;SDS011;49419;51.716;-4.948;2022-08-01T23:25:13;15.20;;;14.10;;
63296;SDS011;49419;51.716;-4.948;2022-08-01T23:27:45;15.93;;;14.60;;
63296;SDS011;49419;51.716;-4.948;2022-08-01T23:30:24;15.52;;;14.23;;
63296;SDS011;49419;51.716;-4.948;2022-08-01T23:33:12;14.00;;;12.98;;
63296;SDS011;49419;51.716;-4.948;2022-08-01T23:35:38;14.15;;;13.15;;
63296;SDS011;49419;51.716;-4.948;2022-08-01T23:38:14;14.27;;;13.25;;
63296;SDS011;49419;51.716;-4.948;2022-08-01T23:43:23;14.20;;;13.10;;
63296;SDS011;49419;51.716;-4.948;2022-08-01T23:45:53;14.63;;;13.52;;
63296;SDS011;49419;51.716;-4.948;2022-08-01T23:48:24;14.02;;;13.05;;
63296;SDS011;49419;51.716;-4.948;2022-08-01T23:50:58;14.23;;;13.23;;
63296;SDS011;49419;51.716;-4.948;2022-08-01T23:56:04;14.55;;;13.40;;
63296;SDS011;49419;51.716;-4.948;2022-08-01T23:58:36;14.65;;;13.57;;
